Time;durP1;ratioP1;P1;durP2;ratioP2;P2;SDS_P1;SDS_P2;PMS_P1;PMS_P2;Temp;Humidity;BMP_temperature;BMP_pressure;BME280_temperature;BME280_humidity;BME280_pressure;Samples;Min_cycle;Max_cycle;Signal;HPM_P1;HPM_P2
2022/06/18 00:01:37;;;;;;;3.95;2.60;;;;;;;22.38;58.21;101797.97;4883161;29;20048;-80
2022/06/18 00:04:04;;;;;;;3.88;2.60;;;;;;;22.36;58.31;101799.91;4877399;29;20053;-79
2022/06/18 00:06:32;;;;;;;4.55;2.70;;;;;;;22.35;58.56;101800.84;4879751;29;20447;-79
2022/06/18 00:08:58;;;;;;;4.22;2.28;;;;;;;22.32;58.48;101798.44;4881539;29;20039;-80
2022/06/18 00:14:09;;;;;;;2.80;2.60;;;;;;;22.30;58.24;101792.34;4879049;29;20040;-80
2022/06/18 00:16:36;;;;;;;4.40;2.67;;;;;;;22.28;58.48;101796.94;4879680;29;20040;-80
2022/06/18 00:19:01;;;;;;;3.33;2.35;;;;;;;22.27;58.71;101789.09;4885622;29;20080;-80
2022/06/18 00:21:26;;;;;;;3.13;2.92;;;;;;;22.24;58.78;101792.78;4866020;29;20045;-79
2022/06/18 00:23:52;;;;;;;5.68;2.97;;;;;;;22.22;59.10;101792.91;4865865;29;20388;-80
2022/06/18 00:26:17;;;;;;;2.83;2.10;;;;;;;22.22;59.19;101798.22;4864865;29;20037;-80
2022/06/18 00:28:43;;;;;;;4.55;2.60;;;;;;;22.19;59.17;101800.28;4881594;29;20040;-80
2022/06/18 00:31:09;;;;;;;4.10;2.42;;;;;;;22.18;59.63;101795.94;4883742;29;20540;-80
2022/06/18 00:33:40;;;;;;;3.50;2.83;;;;;;;22.18;59.52;101798.59;4864814;29;20049;-80
2022/06/18 00:36:13;;;;;;;6.65;2.47;;;;;;;22.15;60.06;101802.31;4865319;29;20060;-80
2022/06/18 00:38:42;;;;;;;5.10;2.78;;;;;;;22.15;59.77;101799.66;4896242;29;20181;-80
2022/06/18 00:41:11;;;;;;;5.13;2.75;;;;;;;22.14;60.25;101803.31;4897730;29;20028;-80
2022/06/18 00:43:42;;;;;;;5.20;3.00;;;;;;;22.13;60.55;101796.25;4886510;29;20048;-80
2022/06/18 00:46:22;;;;;;;3.78;2.85;;;;;;;22.12;60.44;101791.03;4881274;29;20033;-79
2022/06/18 00:49:26;;;;;;;4.60;2.67;;;;;;;22.09;60.89;101788.63;4863051;29;20072;-79
2022/06/18 00:51:57;;;;;;;8.55;2.92;;;;;;;22.08;60.60;101792.22;4853433;29;20112;-80
2022/06/18 00:54:27;;;;;;;3.20;2.90;;;;;;;22.08;60.38;101786.91;4881390;29;20036;-80
2022/06/18 00:57:28;;;;;;;5.53;2.88;;;;;;;22.07;60.39;101790.56;4899100;29;20223;-79
2022/06/18 01:00:03;;;;;;;6.22;3.10;;;;;;;22.05;60.41;101782.66;4896778;29;20248;-79
2022/06/18 01:02:33;;;;;;;4.40;3.17;;;;;;;22.03;60.78;101793.44;4872749;29;20029;-80
2022/06/18 01:04:59;;;;;;;3.53;2.70;;;;;;;22.01;60.84;101786.50;4881670;29;20040;-80
2022/06/18 01:07:37;;;;;;;4.75;2.67;;;;;;;21.99;61.07;101780.44;4849093;29;20289;-79
2022/06/18 01:10:10;;;;;;;3.35;3.03;;;;;;;21.97;60.83;101780.53;4879907;29;20029;-80
2022/06/18 01:12:35;;;;;;;5.88;2.65;;;;;;;21.95;61.08;101777.13;4882622;29;20222;-80
2022/06/18 01:15:06;;;;;;;4.35;3.30;;;;;;;21.93;60.79;101779.06;4883426;29;20048;-79
2022/06/18 01:17:32;;;;;;;9.65;2.90;;;;;;;21.92;61.26;101779.19;4884670;29;20024;-79
2022/06/18 01:20:00;;;;;;;4.03;2.60;;;;;;;21.90;61.79;101779.28;4881333;29;20053;-79
2022/06/18 01:22:49;;;;;;;4.22;2.35;;;;;;;21.89;62.20;101774.94;4865013;29;20045;-79
2022/06/18 01:25:15;;;;;;;3.47;2.42;;;;;;;21.88;61.59;101765.22;4865517;29;20040;-79
2022/06/18 01:27:40;;;;;;;6.95;3.00;;;;;;;21.88;61.83;101772.38;4864794;29;20056;-79
2022/06/18 01:30:08;;;;;;;7.38;2.90;;;;;;;21.87;61.86;101770.69;4881532;29;20048;-81
2022/06/18 01:32:34;;;;;;;8.35;3.03;;;;;;;21.86;61.87;101775.16;4868806;29;20239;-80
2022/06/18 01:35:00;;;;;;;3.45;2.50;;;;;;;21.84;61.88;101769.09;4882100;29;20041;-79
2022/06/18 01:37:26;;;;;;;4.00;2.45;;;;;;;21.83;61.91;101772.72;4879783;29;20041;-79
2022/06/18 01:39:52;;;;;;;8.55;2.75;;;;;;;21.82;61.75;101765.69;4864697;29;20056;-79
2022/06/18 01:42:24;;;;;;;4.00;3.20;;;;;;;21.80;61.70;101767.63;4885074;29;20097;-79
2022/06/18 01:45:12;;;;;;;4.45;2.88;;;;;;;21.78;61.83;101774.88;4882730;29;20064;-79
2022/06/18 01:47:49;;;;;;;4.30;2.72;;;;;;;21.75;62.28;101770.59;4885548;29;20283;-79
2022/06/18 01:50:37;;;;;;;5.78;2.83;;;;;;;21.74;62.46;101778.72;4867826;29;20035;-79
2022/06/18 01:53:06;;;;;;;;;;;;;;;21.72;62.46;101778.84;4884314;29;20243;-79
2022/06/18 01:55:44;;;;;;;7.25;2.97;;;;;;;21.71;62.63;101784.28;4883671;29;20203;-79
2022/06/18 01:58:15;;;;;;;4.85;2.80;;;;;;;21.69;62.49;101771.06;4867208;29;20063;-79
2022/06/18 02:00:44;;;;;;;3.72;3.08;;;;;;;21.66;62.64;101780.13;4884086;29;20040;-79
2022/06/18 02:03:11;;;;;;;3.80;3.45;;;;;;;21.64;62.66;101770.53;4877014;29;20035;-79
2022/06/18 02:05:37;;;;;;;4.82;3.22;;;;;;;21.61;62.44;101770.75;4873494;29;20052;-79
2022/06/18 02:08:04;;;;;;;5.97;3.55;;;;;;;21.58;62.94;101771.84;4856552;29;20073;-79
2022/06/18 02:10:42;;;;;;;4.93;4.20;;;;;;;21.55;62.75;101773.88;4883105;29;20252;-79
2022/06/18 02:13:08;;;;;;;9.73;3.60;;;;;;;21.52;62.71;101774.09;4883790;29;20248;-79
2022/06/18 02:15:39;;;;;;;7.57;3.78;;;;;;;21.49;62.99;101767.19;4890372;29;20040;-79
2022/06/18 02:18:07;;;;;;;8.63;3.60;;;;;;;21.46;63.25;101770.06;4902677;29;20083;-79
2022/06/18 02:20:40;;;;;;;5.90;3.95;;;;;;;21.44;63.38;101777.28;4875054;29;20036;-78
2022/06/18 02:23:06;;;;;;;5.85;3.40;;;;;;;21.42;63.19;101771.22;4884009;29;20052;-79
2022/06/18 02:25:32;;;;;;;4.78;3.70;;;;;;;21.41;63.18;101773.03;4868014;29;20052;-78
2022/06/18 02:28:12;;;;;;;4.53;3.33;;;;;;;21.40;63.48;101774.00;4884278;29;20041;-78
2022/06/18 02:30:37;;;;;;;5.63;3.75;;;;;;;21.37;63.40;101776.88;4883954;29;20309;-79
2022/06/18 02:33:20;;;;;;;5.55;3.65;;;;;;;21.36;63.43;101780.50;4867833;29;20048;-79
2022/06/18 02:35:46;;;;;;;7.35;3.80;;;;;;;21.36;63.53;101788.50;4886253;29;20047;-79
2022/06/18 02:38:18;;;;;;;5.68;3.70;;;;;;;21.34;63.64;101782.44;4900349;29;20243;-79
2022/06/18 02:40:44;;;;;;;5.78;3.65;;;;;;;21.34;63.64;101782.44;4884363;29;20193;-79
2022/06/18 02:43:10;;;;;;;7.03;3.38;;;;;;;21.33;63.83;101780.72;4872000;29;20064;-79
2022/06/18 02:45:37;;;;;;;7.63;3.78;;;;;;;21.33;63.67;101779.88;4884959;29;20045;-79
2022/06/18 02:48:03;;;;;;;11.55;4.10;;;;;;;21.34;63.43;101781.56;4879546;29;20044;-79
2022/06/18 02:50:33;;;;;;;9.93;3.85;;;;;;;21.32;63.71;101784.38;4879153;29;20040;-79
2022/06/18 02:53:01;;;;;;;5.25;3.20;;;;;;;21.31;63.69;101781.81;4886159;29;20231;-79
2022/06/18 02:55:38;;;;;;;5.88;3.85;;;;;;;21.29;63.50;101785.41;4882598;29;20044;-79
2022/06/18 02:58:11;;;;;;;7.10;4.10;;;;;;;21.28;63.96;101782.84;4898905;29;20343;-79
2022/06/18 03:00:39;;;;;;;9.88;3.20;;;;;;;21.26;63.78;101779.44;4893239;29;20045;-79
2022/06/18 03:03:10;;;;;;;9.07;4.22;;;;;;;21.25;63.73;101781.28;4883014;29;20416;-79
2022/06/18 03:05:36;;;;;;;8.80;3.58;;;;;;;21.23;63.85;101783.19;4887362;29;20040;-79
2022/06/18 03:08:02;;;;;;;7.38;3.60;;;;;;;21.21;64.03;101782.47;4883316;29;20048;-78
2022/06/18 03:13:11;;;;;;;11.85;3.75;;;;;;;21.19;63.72;101781.72;4868307;29;20101;-79
2022/06/18 03:15:37;;;;;;;7.35;4.07;;;;;;;21.18;63.96;101782.66;4848186;29;20052;-79
2022/06/18 03:18:03;;;;;;;6.03;3.95;;;;;;;21.17;63.90;101780.09;4882080;29;20328;-79
2022/06/18 03:20:48;;;;;;;11.00;4.22;;;;;;;21.14;64.08;101780.31;4865821;29;20036;-79
2022/06/18 03:23:17;;;;;;;11.57;4.78;;;;;;;21.11;64.27;101783.22;4865712;29;20346;-79
2022/06/18 03:25:42;;;;;;;11.02;4.15;;;;;;;21.06;64.47;101784.38;4884939;29;20033;-79
2022/06/18 03:28:11;;;;;;;13.30;4.35;;;;;;;21.03;64.64;101776.63;4892305;29;20193;-79
2022/06/18 03:30:39;;;;;;;7.70;4.50;;;;;;;20.99;64.83;101777.81;4866567;29;20124;-79
2022/06/18 03:33:05;;;;;;;7.63;4.00;;;;;;;20.98;64.58;101778.75;4882103;29;20045;-79
2022/06/18 03:35:30;;;;;;;7.35;4.38;;;;;;;20.95;64.60;101776.28;4866085;29;20332;-79
2022/06/18 03:37:56;;;;;;;10.75;4.25;;;;;;;20.94;64.76;101776.38;4868006;29;20033;-79
2022/06/18 03:40:21;;;;;;;11.80;4.95;;;;;;;20.93;64.69;101780.03;4866357;29;20049;-79
2022/06/18 03:42:47;;;;;;;8.82;4.60;;;;;;;20.90;64.74;101784.59;4882356;29;20084;-79
2022/06/18 03:45:12;;;;;;;11.05;4.35;;;;;;;20.86;64.89;101783.09;4881824;29;20370;-78
2022/06/18 03:47:38;;;;;;;15.07;4.70;;;;;;;20.86;64.95;101785.75;4865850;29;20251;-78
2022/06/18 03:50:04;;;;;;;14.10;4.75;;;;;;;20.84;64.94;101782.34;4882823;29;20033;-79
2022/06/18 03:52:30;;;;;;;10.50;4.60;;;;;;;20.83;64.81;101787.78;4880077;29;20064;-79
2022/06/18 03:54:55;;;;;;;10.88;4.60;;;;;;;20.82;65.06;101781.63;4865168;29;20340;-79
2022/06/18 03:57:21;;;;;;;7.43;4.18;;;;;;;20.80;65.30;101783.53;4865275;29;20076;-78
2022/06/18 03:59:46;;;;;;;10.98;5.10;;;;;;;20.78;65.23;101788.13;4881124;29;20148;-79
2022/06/18 04:02:13;;;;;;;8.05;4.93;;;;;;;20.75;65.53;101787.47;4881220;29;20029;-78
2022/06/18 04:04:39;;;;;;;9.15;4.88;;;;;;;20.71;65.50;101793.00;4863588;29;20040;-78
2022/06/18 04:07:05;;;;;;;8.23;4.40;;;;;;;20.69;65.60;101792.25;4881736;29;20390;-79
2022/06/18 04:09:32;;;;;;;11.23;4.82;;;;;;;20.67;65.75;101786.19;4864961;29;20068;-78
2022/06/18 04:11:58;;;;;;;9.27;5.10;;;;;;;20.64;66.04;101789.06;4882801;29;20129;-78
2022/06/18 04:14:24;;;;;;;11.75;5.07;;;;;;;20.62;65.89;101782.97;4880286;29;20056;-78
2022/06/18 04:16:50;;;;;;;11.57;4.75;;;;;;;20.60;66.11;101786.69;4881466;29;20240;-79
2022/06/18 04:19:15;;;;;;;11.70;5.05;;;;;;;20.57;66.41;101782.41;4880509;29;20040;-78
2022/06/18 04:21:41;;;;;;;8.25;4.65;;;;;;;20.55;66.31;101789.66;4865623;29;20045;-78
2022/06/18 04:24:06;;;;;;;8.80;4.55;;;;;;;20.53;66.46;101787.09;4847003;29;20041;-79
2022/06/18 04:26:32;;;;;;;7.55;4.32;;;;;;;20.52;66.12;101784.56;4862227;29;20093;-78
2022/06/18 04:28:57;;;;;;;9.13;5.15;;;;;;;20.50;66.55;101782.00;4872605;29;20052;-79
2022/06/18 04:31:23;;;;;;;8.50;4.75;;;;;;;20.50;66.55;101783.78;4859495;29;20176;-79
2022/06/18 04:33:48;;;;;;;9.25;4.70;;;;;;;20.49;66.89;101787.41;4874533;29;20099;-79
2022/06/18 04:36:36;;;;;;;11.70;5.18;;;;;;;20.46;66.79;101785.78;4883963;29;20064;-79
2022/06/18 04:39:02;;;;;;;11.80;6.20;;;;;;;20.47;67.15;101789.34;4885202;29;20358;-78
2022/06/18 04:41:27;;;;;;;12.10;5.18;;;;;;;20.44;67.58;101793.03;4879928;29;20041;-79
2022/06/18 04:43:52;;;;;;;10.20;5.03;;;;;;;20.43;67.37;101793.13;4880832;29;20113;-78
2022/06/18 04:46:18;;;;;;;9.77;5.18;;;;;;;20.42;67.34;101788.78;4878698;29;20397;-79
2022/06/18 04:48:44;;;;;;;7.80;5.18;;;;;;;20.41;67.45;101787.06;4864678;29;20052;-79
2022/06/18 04:51:09;;;;;;;9.88;5.10;;;;;;;20.40;67.92;101783.56;4878069;29;20074;-78
2022/06/18 04:53:35;;;;;;;11.85;5.68;;;;;;;20.38;67.99;101781.97;4885432;29;20045;-79
2022/06/18 04:56:00;;;;;;;14.02;5.60;;;;;;;20.37;68.00;101783.75;4879360;29;20041;-78
2022/06/18 04:58:26;;;;;;;12.73;5.53;;;;;;;20.35;68.12;101788.34;4881795;29;20064;-79
2022/06/18 05:00:51;;;;;;;9.65;4.95;;;;;;;20.35;68.20;101782.16;4879734;29;20049;-79
2022/06/18 05:03:21;;;;;;;15.35;5.53;;;;;;;20.33;68.32;101787.59;4879552;29;20048;-79
2022/06/18 05:05:46;;;;;;;13.07;5.55;;;;;;;20.32;68.14;101783.25;4885152;29;20033;-79
2022/06/18 05:08:11;;;;;;;12.70;6.22;;;;;;;20.31;68.27;101774.38;4879379;29;20340;-79
2022/06/18 05:10:37;;;;;;;12.07;6.43;;;;;;;20.32;68.42;101785.91;4883401;29;20040;-78
2022/06/18 05:13:02;;;;;;;11.52;5.57;;;;;;;20.31;68.63;101786.84;4862960;29;20079;-79
2022/06/18 05:15:28;;;;;;;11.75;5.32;;;;;;;20.31;68.58;101793.00;4862513;29;20347;-79
2022/06/18 05:17:54;;;;;;;6.82;5.57;;;;;;;20.29;68.74;101786.94;4879701;29;20080;-78
2022/06/18 05:20:23;;;;;;;11.90;6.18;;;;;;;20.27;68.33;101786.19;4850728;29;20037;-81
2022/06/18 05:22:49;;;;;;;13.27;5.90;;;;;;;20.28;68.74;101787.03;4902531;29;20050;-79
2022/06/18 05:25:15;;;;;;;11.38;5.88;;;;;;;20.26;68.36;101786.28;4901788;29;20055;-79
2022/06/18 05:27:42;;;;;;;11.55;5.65;;;;;;;20.27;68.31;101786.19;4897991;29;21252;-78
2022/06/18 05:30:11;;;;;;;7.50;5.05;;;;;;;20.25;68.25;101782.78;4872575;29;20052;-79
2022/06/18 05:32:37;;;;;;;16.00;6.50;;;;;;;20.24;68.00;101781.06;4883436;29;20114;-79
2022/06/18 05:35:03;;;;;;;6.95;5.40;;;;;;;20.24;68.41;101778.41;4882673;29;20044;-79
2022/06/18 05:37:31;;;;;;;9.57;5.78;;;;;;;20.24;68.15;101778.41;4866570;29;20060;-79
2022/06/18 05:39:56;;;;;;;10.20;5.85;;;;;;;20.24;68.94;101780.22;4881960;29;20371;-79
2022/06/18 05:42:22;;;;;;;9.98;6.10;;;;;;;20.22;68.54;101777.66;4876616;29;20051;-79
2022/06/18 05:44:48;;;;;;;11.65;5.95;;;;;;;20.22;68.86;101790.13;4901743;29;20131;-79
2022/06/18 05:47:15;;;;;;;18.85;7.18;;;;;;;20.22;68.48;101782.97;4853527;29;20059;-79
2022/06/18 05:49:41;;;;;;;11.23;5.78;;;;;;;20.22;69.20;101784.78;4883125;29;20040;-79
2022/06/18 05:52:07;;;;;;;13.02;6.15;;;;;;;20.20;69.26;101784.88;4854422;29;20036;-79
2022/06/18 05:54:33;;;;;;;14.00;5.80;;;;;;;20.19;68.74;101783.19;4888061;29;20360;-79
2022/06/18 05:56:59;;;;;;;12.73;6.10;;;;;;;20.20;68.51;101792.88;4841349;29;20036;-80
2022/06/18 05:59:24;;;;;;;10.15;5.72;;;;;;;20.21;68.62;101791.06;4866822;29;20045;-79
2022/06/18 06:01:50;;;;;;;13.02;5.75;;;;;;;20.20;68.23;101787.56;4849745;29;20097;-79
2022/06/18 06:04:17;;;;;;;17.67;6.03;;;;;;;20.21;68.11;101788.41;4861473;29;20277;-79
2022/06/18 06:06:42;;;;;;;18.45;7.28;;;;;;;20.22;68.65;101784.78;4877084;29;20254;-79
2022/06/18 06:09:13;;;;;;;10.93;6.43;;;;;;;20.22;69.33;101793.63;4882192;29;20248;-79
2022/06/18 06:11:38;;;;;;;11.80;6.00;;;;;;;20.21;68.10;101797.25;4882213;29;20068;-79
2022/06/18 06:14:05;;;;;;;16.00;6.72;;;;;;;20.22;68.70;101798.09;4882099;29;20041;-79
2022/06/18 06:16:31;;;;;;;11.57;6.32;;;;;;;20.23;69.26;101799.78;4889481;29;20046;-79
2022/06/18 06:18:57;;;;;;;12.65;6.45;;;;;;;20.22;69.71;101804.25;4873961;29;20389;-80
2022/06/18 06:21:23;;;;;;;12.60;7.13;;;;;;;20.21;70.07;101807.88;4881635;29;20096;-79
2022/06/18 06:23:49;;;;;;;12.90;6.40;;;;;;;20.21;70.02;101809.66;4880460;29;20074;-79
2022/06/18 06:26:19;;;;;;;13.70;7.53;;;;;;;20.21;69.75;101807.00;4864027;29;20047;-79
2022/06/18 06:28:45;;;;;;;12.75;6.95;;;;;;;20.20;70.17;101806.16;4886356;29;20033;-79
2022/06/18 06:31:10;;;;;;;11.27;6.75;;;;;;;20.20;70.67;101802.66;4848821;29;20041;-79
2022/06/18 06:33:36;;;;;;;7.78;5.70;;;;;;;20.20;69.69;101802.66;4860908;29;20085;-79
2022/06/18 06:36:01;;;;;;;10.32;6.80;;;;;;;20.19;70.12;101807.09;4846184;29;20034;-79
2022/06/18 06:38:27;;;;;;;13.88;6.85;;;;;;;20.21;70.33;101812.34;4862725;29;20037;-79
2022/06/18 06:40:54;;;;;;;12.98;6.47;;;;;;;20.22;70.08;101814.06;4880834;29;20228;-79
2022/06/18 06:43:20;;;;;;;10.13;5.90;;;;;;;20.22;70.23;101822.03;4876567;29;20032;-80
2022/06/18 06:45:46;;;;;;;10.35;5.57;;;;;;;20.23;69.48;101819.28;4879710;29;20353;-79
2022/06/18 06:48:12;;;;;;;14.15;6.72;;;;;;;20.22;70.83;101814.91;4875560;29;20044;-79
2022/06/18 06:50:39;;;;;;;11.68;6.10;;;;;;;20.23;70.43;101823.72;4853788;29;20145;-79
2022/06/18 06:53:04;;;;;;;22.02;6.97;;;;;;;20.23;70.05;101813.06;4849427;29;20049;-79
2022/06/18 06:58:19;;;;;;;11.00;5.97;;;;;;;20.24;69.83;101817.47;4888373;29;20241;-79
2022/06/18 07:00:53;;;;;;;8.80;4.47;;;;;;;20.23;69.57;101821.94;4884085;29;20112;-79
2022/06/18 07:03:27;;;;;;;7.53;5.35;;;;;;;20.24;69.49;101820.97;4861837;29;20104;-80
2022/06/18 07:05:54;;;;;;;6.53;4.75;;;;;;;20.26;69.33;101820.88;4882423;29;20033;-79
2022/06/18 07:08:19;;;;;;;13.45;5.65;;;;;;;20.28;69.03;101821.63;4865454;29;20069;-79
2022/06/18 07:10:48;;;;;;;14.68;5.57;;;;;;;20.28;69.11;101833.13;4867256;29;20270;-80
2022/06/18 07:13:14;;;;;;;7.97;4.88;;;;;;;20.30;69.45;101827.69;4868883;29;20056;-79
2022/06/18 07:15:39;;;;;;;10.45;5.65;;;;;;;20.30;69.73;101825.91;4883106;29;20052;-79
2022/06/18 07:18:13;;;;;;;13.13;5.70;;;;;;;20.29;69.87;101826.00;4865499;29;20161;-79
2022/06/18 07:20:39;;;;;;;14.13;5.18;;;;;;;20.32;69.62;101831.97;4870175;29;20330;-79
2022/06/18 07:23:04;;;;;;;16.25;5.57;;;;;;;20.34;69.87;101826.53;4864385;29;20052;-79
2022/06/18 07:25:30;;;;;;;15.13;6.18;;;;;;;20.35;70.09;101833.56;4853063;29;20398;-79
2022/06/18 07:27:56;;;;;;;12.90;5.07;;;;;;;20.38;70.31;101837.84;4843154;29;20291;-79
2022/06/18 07:30:21;;;;;;;13.95;5.65;;;;;;;20.38;70.44;101840.50;4878983;29;20344;-79
2022/06/18 07:32:49;;;;;;;8.40;5.40;;;;;;;20.39;70.17;101835.06;4868214;29;20292;-79
2022/06/18 07:35:21;;;;;;;8.25;5.13;;;;;;;20.40;70.21;101831.44;4881866;29;20044;-79
2022/06/18 07:37:47;;;;;;;10.73;5.13;;;;;;;20.42;70.48;101836.66;4879092;29;20057;-79
2022/06/18 07:40:13;;;;;;;11.77;5.20;;;;;;;20.43;70.50;101831.25;4877985;29;20068;-79
2022/06/18 07:42:40;;;;;;;11.52;4.82;;;;;;;20.47;70.64;101823.91;4866500;29;20176;-80
2022/06/18 07:45:14;;;;;;;14.10;5.43;;;;;;;20.48;70.67;101826.47;4866004;29;20179;-79
2022/06/18 07:47:40;;;;;;;38.83;7.95;;;;;;;20.51;70.74;101833.38;4868254;29;20108;-79
2022/06/18 07:50:06;;;;;;;27.33;7.65;;;;;;;20.52;70.86;101832.44;4864541;29;20230;-79
2022/06/18 07:52:31;;;;;;;12.02;5.60;;;;;;;20.52;70.58;101827.97;4878422;29;20047;-79
2022/06/18 07:54:58;;;;;;;17.25;6.15;;;;;;;20.55;70.30;101828.72;4848748;29;20069;-79
2022/06/18 07:57:23;;;;;;;11.80;4.88;;;;;;;20.58;70.22;101826.69;4849530;29;20033;-79
2022/06/18 07:59:49;;;;;;;11.35;4.93;;;;;;;20.62;70.54;101822.06;4879464;29;20225;-79
2022/06/18 08:02:16;;;;;;;10.00;4.13;;;;;;;20.66;70.67;101826.22;4865681;29;20093;-79
2022/06/18 08:04:41;;;;;;;6.90;4.32;;;;;;;20.71;70.27;101824.09;4863441;29;20052;-79
2022/06/18 08:07:08;;;;;;;11.95;4.75;;;;;;;20.74;70.14;101823.91;4838920;29;20119;-79
2022/06/18 08:09:34;;;;;;;12.32;5.32;;;;;;;20.78;70.81;101821.88;4880148;29;20029;-79
2022/06/18 08:12:01;;;;;;;6.70;4.38;;;;;;;20.81;69.85;101822.53;4864656;29;20375;-79
2022/06/18 08:14:27;;;;;;;8.25;4.90;;;;;;;20.81;69.15;101821.66;4877780;29;20056;-79
2022/06/18 08:16:52;;;;;;;30.70;6.72;;;;;;;20.83;69.63;101819.72;4864389;29;20119;-79
2022/06/18 08:19:18;;;;;;;13.15;4.38;;;;;;;20.85;69.13;101813.34;4850984;29;20245;-79
2022/06/18 08:21:44;;;;;;;13.25;4.68;;;;;;;20.89;69.24;101814.00;4846865;29;20112;-80
2022/06/18 08:24:17;;;;;;;12.38;5.57;;;;;;;20.93;69.07;101812.81;4863082;29;20041;-80
2022/06/18 08:26:44;;;;;;;11.52;4.13;;;;;;;20.95;68.97;101808.25;4880622;29;20354;-79
2022/06/18 08:29:14;;;;;;;17.58;5.63;;;;;;;20.98;69.09;101808.03;4876057;29;20048;-79
2022/06/18 08:31:40;;;;;;;13.35;5.40;;;;;;;21.01;68.82;101806.97;4880470;29;20072;-80
2022/06/18 08:34:05;;;;;;;13.68;4.20;;;;;;;21.06;68.63;101811.00;4847545;29;20052;-80
2022/06/18 08:36:33;;;;;;;10.40;4.30;;;;;;;21.11;68.10;101805.38;4881133;29;20037;-79
2022/06/18 08:38:58;;;;;;;10.13;4.57;;;;;;;21.15;67.56;101809.50;4878698;29;20028;-79
2022/06/18 08:41:43;;;;;;;6.97;4.40;;;;;;;21.17;67.01;101801.41;4861723;29;20064;-79
2022/06/18 08:44:41;;;;;;;8.48;4.18;;;;;;;21.24;66.95;101800.03;4878148;29;20340;-79
2022/06/18 08:47:15;;;;;;;6.88;4.28;;;;;;;21.31;67.28;101797.78;4828793;29;20352;-79
2022/06/18 08:50:26;;;;;;;8.23;4.20;;;;;;;21.33;66.61;101796.69;4876600;29;20065;-79
2022/06/18 08:52:51;;;;;;;13.02;3.90;;;;;;;21.38;66.61;101783.06;4876908;29;20228;-79
2022/06/18 08:55:42;;;;;;;12.02;4.65;;;;;;;21.40;66.75;101776.66;4881772;29;20021;-79
2022/06/18 08:58:47;;;;;;;9.50;4.28;;;;;;;21.47;66.28;101783.28;4865282;29;20101;-79
2022/06/18 09:01:29;;;;;;;7.88;3.95;;;;;;;21.53;66.41;101776.66;4874458;29;20025;-79
2022/06/18 09:04:07;;;;;;;7.88;3.80;;;;;;;21.59;65.68;101778.91;4882096;29;20053;-79
2022/06/18 09:06:47;;;;;;;9.70;4.20;;;;;;;21.67;65.72;101789.00;4881299;29;20025;-79
2022/06/18 09:09:22;;;;;;;8.90;4.50;;;;;;;21.71;65.65;101782.47;4883490;29;20292;-79
2022/06/18 09:12:02;;;;;;;9.32;4.10;;;;;;;21.76;65.33;101795.47;4878610;29;20045;-79
2022/06/18 09:14:51;;;;;;;13.85;4.65;;;;;;;21.83;66.06;101796.72;4876740;29;20359;-79
2022/06/18 09:17:45;;;;;;;10.38;4.75;;;;;;;21.89;65.92;101800.75;4883114;29;20064;-79
2022/06/18 09:20:19;;;;;;;10.07;4.18;;;;;;;21.92;65.38;101798.72;4883064;29;20045;-79
2022/06/18 09:22:51;;;;;;;12.77;4.05;;;;;;;21.94;65.38;101796.78;4882069;29;20333;-79
2022/06/18 09:25:19;;;;;;;7.78;3.80;;;;;;;21.98;65.45;101782.25;4880230;29;20216;-79
2022/06/18 09:28:03;;;;;;;5.88;3.65;;;;;;;22.03;65.80;101788.09;4882762;29;20033;-79
2022/06/18 09:30:34;;;;;;;8.95;4.07;;;;;;;22.09;65.36;101788.63;4883655;29;20047;-79
2022/06/18 09:33:04;;;;;;;8.00;4.15;;;;;;;22.14;64.96;101789.09;4873917;29;20041;-79
2022/06/18 09:35:41;;;;;;;8.23;4.70;;;;;;;22.15;64.13;101794.31;4882204;29;20043;-80
2022/06/18 09:38:15;;;;;;;14.82;4.35;;;;;;;22.16;64.11;101795.19;4875906;29;20075;-81
2022/06/18 09:40:49;;;;;;;9.38;4.97;;;;;;;22.18;64.22;101802.09;4878828;29;20021;-80
2022/06/18 09:43:30;;;;;;;10.35;3.92;;;;;;;22.20;64.82;101797.50;4889324;29;20039;-80
2022/06/18 09:46:01;;;;;;;9.93;4.05;;;;;;;22.25;64.53;101797.16;4878396;29;20036;-81
2022/06/18 09:48:26;;;;;;;13.00;4.10;;;;;;;22.27;64.35;101789.94;4883596;29;20029;-80
2022/06/18 09:51:00;;;;;;;9.88;3.58;;;;;;;22.33;63.78;101785.94;4868540;29;20046;-80
2022/06/18 09:53:30;;;;;;;5.63;3.15;;;;;;;22.40;64.39;101792.53;4874251;29;20041;-80
2022/06/18 09:56:11;;;;;;;10.43;4.10;;;;;;;22.44;63.95;101783.31;4863504;29;20041;-80
2022/06/18 09:58:44;;;;;;;5.90;3.50;;;;;;;22.49;64.49;101780.31;4883736;29;20096;-80
2022/06/18 10:01:16;;;;;;;10.52;4.13;;;;;;;22.51;63.81;101778.38;4875725;29;20067;-80
2022/06/18 10:09:21;;;;;;;9.75;3.40;;;;;;;22.60;63.37;101774.97;4866217;29;20124;-80
2022/06/18 10:11:47;;;;;;;6.00;3.47;;;;;;;22.65;63.14;101769.28;4877402;29;20041;-80
2022/06/18 10:14:21;;;;;;;10.20;3.60;;;;;;;22.70;63.22;101773.31;4858384;29;20036;-80
2022/06/18 10:17:11;;;;;;;6.35;3.40;;;;;;;22.73;62.94;101765.03;4887120;29;20116;-80
2022/06/18 10:19:55;;;;;;;14.88;4.30;;;;;;;22.77;62.98;101768.31;4877684;29;20033;-80
2022/06/18 10:22:36;;;;;;;7.00;3.95;;;;;;;22.80;63.25;101762.75;4863347;29;20052;-80
2022/06/18 10:25:25;;;;;;;9.45;3.53;;;;;;;22.88;63.08;101760.31;4871429;29;20390;-80
2022/06/18 10:28:01;;;;;;;;;;;;;;;22.92;63.07;101761.81;4882411;29;20084;-80
2022/06/18 10:31:08;;;;;;;8.25;3.28;;;;;;;22.98;62.69;101755.13;4878922;29;19942;-80
2022/06/18 10:34:03;;;;;;;9.25;4.13;;;;;;;23.03;63.17;101752.06;4827351;29;20397;-80
2022/06/18 10:36:50;;;;;;;8.82;3.95;;;;;;;23.08;62.86;101752.59;4876890;29;20404;-80
2022/06/18 10:39:47;;;;;;;8.35;3.90;;;;;;;23.12;62.90;101748.69;4872212;29;20051;-80
2022/06/18 10:42:27;;;;;;;6.20;3.87;;;;;;;23.16;62.44;101751.03;4858578;29;20057;-80
2022/06/18 10:45:11;;;;;;;14.73;3.55;;;;;;;23.23;62.35;101745.19;4860492;29;20079;-80
2022/06/18 10:47:40;;;;;;;7.43;3.78;;;;;;;23.24;62.03;101739.72;4871701;29;20277;-80
2022/06/18 10:50:13;;;;;;;5.03;3.13;;;;;;;23.28;63.36;101738.47;4877309;29;20228;-80
2022/06/18 10:52:39;;;;;;;5.15;3.67;;;;;;;23.33;64.34;101738.97;4881884;29;20068;-80
2022/06/18 10:55:20;;;;;;;7.85;3.70;;;;;;;23.41;63.82;101733.00;4880688;29;20045;-80
2022/06/18 10:57:48;;;;;;;7.18;3.67;;;;;;;23.49;63.26;101737.75;4881716;29;20267;-80
2022/06/18 11:00:18;;;;;;;8.10;3.45;;;;;;;23.57;61.69;101743.28;4881147;29;20591;-80
2022/06/18 11:02:46;;;;;;;5.22;3.00;;;;;;;23.63;62.04;101739.28;4883048;29;20060;-80
2022/06/18 11:05:23;;;;;;;11.57;3.50;;;;;;;23.69;61.37;101736.09;4880451;29;20249;-80
2022/06/18 11:07:51;;;;;;;5.97;3.15;;;;;;;23.79;60.89;101742.38;4878218;29;20032;-80
2022/06/18 11:10:31;;;;;;;7.43;3.27;;;;;;;23.81;60.96;101737.78;4865639;29;20075;-80
2022/06/18 11:13:00;;;;;;;4.65;2.95;;;;;;;23.82;62.51;101726.13;4878044;29;20057;-80
2022/06/18 11:15:38;;;;;;;9.48;3.47;;;;;;;23.84;61.23;101729.50;4858164;29;20037;-80
2022/06/18 11:18:15;;;;;;;5.65;2.58;;;;;;;23.87;63.24;101731.09;4878092;29;20032;-80
2022/06/18 11:20:57;;;;;;;10.85;2.85;;;;;;;23.87;60.46;101721.25;4863110;29;20032;-80
2022/06/18 11:23:23;;;;;;;6.38;2.90;;;;;;;23.89;60.12;101713.09;4866111;29;20275;-80
2022/06/18 11:25:53;;;;;;;4.40;2.83;;;;;;;23.92;60.94;101713.69;4864940;29;20033;-80
2022/06/18 11:28:23;;;;;;;10.43;2.92;;;;;;;23.95;61.93;101707.22;4887899;29;20025;-80
2022/06/18 11:30:51;;;;;;;9.48;3.00;;;;;;;24.00;61.69;101709.53;4863602;29;20076;-80
2022/06/18 11:33:28;;;;;;;9.30;2.97;;;;;;;24.02;61.10;101705.72;4879758;29;20343;-80
2022/06/18 11:35:54;;;;;;;10.82;3.42;;;;;;;24.05;60.09;101707.28;4878683;29;20097;-80
2022/06/18 11:38:28;;;;;;;9.63;3.03;;;;;;;24.08;58.71;101705.19;4883239;29;20044;-80
2022/06/18 11:40:56;;;;;;;9.63;3.15;;;;;;;24.08;58.45;101696.31;4862810;29;20069;-80
2022/06/18 11:43:22;;;;;;;8.60;2.72;;;;;;;24.10;58.89;101699.72;4876343;29;20110;-80
2022/06/18 11:45:57;;;;;;;10.00;3.33;;;;;;;24.10;59.11;101703.25;4863675;29;20261;-80
2022/06/18 11:48:47;;;;;;;7.57;3.08;;;;;;;24.11;59.44;101704.09;4876342;29;20788;-80
2022/06/18 11:51:16;;;;;;;6.72;2.60;;;;;;;24.11;59.17;101698.75;4878184;29;20037;-80